createdAt,value
2023-02-26T00:01:33.369Z,0.60
2023-02-26T00:04:03.080Z,0.60
2023-02-26T00:06:33.234Z,0.60
2023-02-26T00:09:01.508Z,0.50
2023-02-26T00:11:31.578Z,0.60
2023-02-26T00:14:00.035Z,0.50
2023-02-26T00:16:29.376Z,0.50
2023-02-26T00:18:58.109Z,0.50
2023-02-26T00:21:26.818Z,0.50
2023-02-26T00:23:56.174Z,0.50
2023-02-26T00:26:24.743Z,0.50
2023-02-26T00:28:54.624Z,0.80
2023-02-26T00:31:24.827Z,0.50
2023-02-26T00:33:55.186Z,0.50
2023-02-26T00:36:30.729Z,0.50
2023-02-26T00:39:07.635Z,0.50
2023-02-26T00:41:37.009Z,0.50
2023-02-26T00:44:06.655Z,0.50
2023-02-26T00:46:42.817Z,0.40
2023-02-26T00:49:15.258Z,0.40
2023-02-26T00:51:47.045Z,0.40
2023-02-26T00:54:20.293Z,0.40
2023-02-26T00:56:48.828Z,0.40
2023-02-26T00:59:18.633Z,0.40
2023-02-26T01:01:46.950Z,0.40
2023-02-26T01:04:15.828Z,0.40
2023-02-26T01:06:44.960Z,0.30
2023-02-26T01:09:16.867Z,0.30
2023-02-26T01:11:45.383Z,0.30
2023-02-26T01:14:16.248Z,0.30
2023-02-26T01:16:50.240Z,0.30
2023-02-26T01:19:21.200Z,0.30
2023-02-26T01:21:52.705Z,0.40
2023-02-26T01:24:26.338Z,0.30
2023-02-26T01:26:54.521Z,0.30
2023-02-26T01:29:22.742Z,0.30
2023-02-26T01:31:55.449Z,0.30
2023-02-26T01:34:25.687Z,0.30
2023-02-26T01:36:57.945Z,0.30
2023-02-26T01:39:29.167Z,0.30
2023-02-26T01:41:59.636Z,0.30
2023-02-26T01:44:30.944Z,0.40
2023-02-26T01:47:05.924Z,0.40
2023-02-26T01:49:34.275Z,0.40
2023-02-26T01:52:03.104Z,0.30
2023-02-26T01:54:33.907Z,0.30
2023-02-26T01:57:04.946Z,0.30
2023-02-26T01:59:33.895Z,0.30
2023-02-26T02:02:04.305Z,0.30
2023-02-26T02:04:34.117Z,0.30
2023-02-26T02:07:02.439Z,0.20
2023-02-26T02:09:30.465Z,0.20
2023-02-26T02:12:08.138Z,0.20
2023-02-26T02:14:42.760Z,0.20
2023-02-26T02:17:13.688Z,0.20
2023-02-26T02:19:52.761Z,0.20
2023-02-26T02:22:27.806Z,-0.30
2023-02-26T02:25:05.032Z,0.20
2023-02-26T02:27:37.385Z,0.20
2023-02-26T02:30:16.695Z,0.10
2023-02-26T02:32:47.866Z,0.20
2023-02-26T02:35:19.308Z,0.20
2023-02-26T02:37:49.537Z,0.10
2023-02-26T02:40:20.535Z,0.20
2023-02-26T02:42:50.779Z,0.10
2023-02-26T02:45:21.824Z,0.10
2023-02-26T02:47:55.467Z,0.10
2023-02-26T02:50:29.188Z,0.20
2023-02-26T02:52:58.870Z,0.20
2023-02-26T02:55:28.773Z,0.30
2023-02-26T02:58:00.827Z,0.10
2023-02-26T03:00:30.832Z,0.10
2023-02-26T03:03:01.988Z,0.10
2023-02-26T03:05:31.981Z,0.00
2023-02-26T03:08:04.183Z,0.20
2023-02-26T03:10:32.251Z,0.20
2023-02-26T03:13:00.319Z,0.10
2023-02-26T03:15:33.699Z,0.20
2023-02-26T03:18:07.488Z,0.10
2023-02-26T03:20:52.258Z,0.00
2023-02-26T03:23:22.207Z,0.00
2023-02-26T03:25:53.003Z,0.10
2023-02-26T03:28:26.474Z,0.30
2023-02-26T03:30:58.392Z,0.20
2023-02-26T03:33:31.229Z,0.30
2023-02-26T03:36:04.413Z,0.30
2023-02-26T03:38:36.150Z,0.20
2023-02-26T03:41:05.469Z,0.10
2023-02-26T03:43:35.456Z,0.20
2023-02-26T03:46:05.156Z,0.00
2023-02-26T03:48:37.898Z,0.00
2023-02-26T03:51:08.252Z,0.00
2023-02-26T03:53:39.091Z,0.70
2023-02-26T03:56:09.026Z,-0.10
2023-02-26T03:58:37.080Z,0.00
2023-02-26T04:01:06.150Z,0.00
2023-02-26T04:03:36.564Z,0.00
2023-02-26T04:06:06.192Z,0.00
2023-02-26T04:08:34.366Z,-0.10
2023-02-26T04:11:06.401Z,0.00
2023-02-26T04:13:34.623Z,-0.10
2023-02-26T04:16:02.604Z,-0.10
2023-02-26T04:18:30.638Z,-0.10
2023-02-26T04:20:58.592Z,-0.10
2023-02-26T04:23:28.003Z,0.00
2023-02-26T04:25:56.231Z,0.00
2023-02-26T04:28:25.409Z,0.00
2023-02-26T04:30:56.451Z,-0.10
2023-02-26T04:33:24.476Z,0.00
2023-02-26T04:35:52.660Z,-0.10
2023-02-26T04:38:20.652Z,0.10
2023-02-26T04:40:52.660Z,0.00
2023-02-26T04:43:21.825Z,0.00
2023-02-26T04:45:50.399Z,0.00
2023-02-26T04:48:18.629Z,0.00
2023-02-26T04:50:48.549Z,-0.30
2023-02-26T04:53:16.611Z,-0.10
2023-02-26T04:55:51.891Z,-0.10
2023-02-26T04:58:30.849Z,-0.10
2023-02-26T05:00:58.878Z,0.00
2023-02-26T05:03:26.917Z,0.10
2023-02-26T05:05:54.998Z,0.00
2023-02-26T05:08:24.480Z,0.10
2023-02-26T05:10:53.187Z,-0.10
2023-02-26T05:13:22.576Z,-0.20
2023-02-26T05:15:54.378Z,0.10
2023-02-26T05:18:22.486Z,-0.10
2023-02-26T05:20:53.081Z,-0.30
2023-02-26T05:23:21.362Z,-0.10
2023-02-26T05:25:49.492Z,0.30
2023-02-26T05:28:17.656Z,0.40
2023-02-26T05:30:46.987Z,-0.10
2023-02-26T05:33:14.985Z,-0.10
2023-02-26T05:35:42.929Z,-0.10
2023-02-26T05:38:15.371Z,-0.40
2023-02-26T05:40:43.524Z,-0.10
2023-02-26T05:43:21.509Z,0.00
2023-02-26T05:45:53.962Z,-0.10
2023-02-26T05:48:22.290Z,-0.10
2023-02-26T05:50:51.091Z,-0.20
2023-02-26T05:53:20.787Z,-0.10
2023-02-26T05:55:48.799Z,0.00
2023-02-26T05:58:18.660Z,-0.10
2023-02-26T06:00:48.621Z,-0.10
2023-02-26T06:03:27.065Z,-0.10
2023-02-26T06:05:55.171Z,-0.10
2023-02-26T06:08:23.256Z,0.00
2023-02-26T06:10:51.430Z,-0.10
2023-02-26T06:13:21.950Z,-0.10
2023-02-26T06:15:50.923Z,-0.10
2023-02-26T06:18:18.898Z,-0.20
2023-02-26T06:20:48.281Z,-0.10
2023-02-26T06:23:16.222Z,-0.10
2023-02-26T06:25:46.874Z,-0.10
2023-02-26T06:28:17.946Z,-0.20
2023-02-26T06:30:46.108Z,-0.10
2023-02-26T06:33:14.283Z,-0.10
2023-02-26T06:35:44.713Z,-0.10
2023-02-26T06:38:14.219Z,1.00
2023-02-26T06:40:42.317Z,0.00
2023-02-26T06:43:11.952Z,-0.10
2023-02-26T06:45:40.001Z,-0.10
2023-02-26T06:48:09.472Z,-0.10
2023-02-26T06:50:37.450Z,-0.10
2023-02-26T06:53:05.477Z,-0.10
2023-02-26T06:55:37.442Z,-0.10
2023-02-26T06:58:05.500Z,0.00
2023-02-26T07:00:33.670Z,0.10
2023-02-26T07:03:01.689Z,0.00
2023-02-26T07:05:29.630Z,0.00
2023-02-26T07:07:57.623Z,0.10
2023-02-26T07:10:26.024Z,0.10
2023-02-26T07:12:56.683Z,0.30
2023-02-26T07:15:24.679Z,0.10
2023-02-26T07:17:52.902Z,0.20
2023-02-26T07:20:20.893Z,0.30
2023-02-26T07:22:48.920Z,0.30
2023-02-26T07:25:16.903Z,0.40
2023-02-26T07:27:44.922Z,0.40
2023-02-26T07:30:15.332Z,0.10
2023-02-26T07:32:48.562Z,0.30
2023-02-26T07:35:16.671Z,0.50
2023-02-26T07:37:44.715Z,0.40
2023-02-26T07:40:13.125Z,0.40
2023-02-26T07:42:41.217Z,0.50
2023-02-26T07:45:12.039Z,0.50
2023-02-26T07:47:41.380Z,0.60
2023-02-26T07:50:10.736Z,0.30
2023-02-26T07:52:41.912Z,0.70
2023-02-26T07:55:12.430Z,0.70
2023-02-26T07:57:40.448Z,0.80
2023-02-26T08:00:09.951Z,0.90
2023-02-26T08:02:38.032Z,0.80
2023-02-26T08:05:07.598Z,0.90
2023-02-26T08:07:35.560Z,0.90
2023-02-26T08:10:04.413Z,0.80
2023-02-26T08:12:36.628Z,1.10
2023-02-26T08:15:05.126Z,1.00
2023-02-26T08:17:36.335Z,1.20
2023-02-26T08:20:06.659Z,1.00
2023-02-26T08:22:38.928Z,1.30
2023-02-26T08:25:09.824Z,1.20
2023-02-26T08:27:37.792Z,1.40
2023-02-26T08:30:07.485Z,1.50
2023-02-26T08:32:35.800Z,1.50
2023-02-26T08:35:03.820Z,1.70
2023-02-26T08:37:31.770Z,1.60
2023-02-26T08:40:05.237Z,1.60
2023-02-26T08:42:33.589Z,1.70
2023-02-26T08:45:01.599Z,1.70
2023-02-26T08:47:29.548Z,1.80
2023-02-26T08:50:00.693Z,1.80
2023-02-26T08:52:30.549Z,1.80
2023-02-26T08:54:58.682Z,1.90
2023-02-26T08:57:31.399Z,1.90
2023-02-26T09:00:04.850Z,1.90
2023-02-26T09:02:35.700Z,2.00
2023-02-26T09:05:03.716Z,2.00
2023-02-26T09:07:31.841Z,2.10
2023-02-26T09:09:59.870Z,2.10
2023-02-26T09:12:29.244Z,2.10
2023-02-26T09:14:59.081Z,2.20
2023-02-26T09:17:27.377Z,2.20
2023-02-26T09:19:58.540Z,2.30
2023-02-26T09:22:26.531Z,2.30
2023-02-26T09:24:54.676Z,2.30
2023-02-26T09:27:23.001Z,2.40
2023-02-26T09:29:54.383Z,2.40
2023-02-26T09:32:23.659Z,2.40
2023-02-26T09:34:54.312Z,2.50
2023-02-26T09:37:22.345Z,2.60
2023-02-26T09:39:54.589Z,2.60
2023-02-26T09:42:36.932Z,2.60
2023-02-26T09:45:07.202Z,2.60
2023-02-26T09:47:39.459Z,2.70
2023-02-26T09:50:14.856Z,2.70
2023-02-26T09:52:46.316Z,2.70
2023-02-26T09:55:16.438Z,2.70
2023-02-26T09:57:47.627Z,2.80
2023-02-26T10:00:23.587Z,2.80
2023-02-26T10:02:57.314Z,2.80
2023-02-26T10:05:30.335Z,2.90
2023-02-26T10:08:01.075Z,2.90
2023-02-26T10:10:34.590Z,2.90
2023-02-26T10:13:02.821Z,3.00
2023-02-26T10:15:36.465Z,3.00
2023-02-26T10:18:07.052Z,3.00
2023-02-26T10:20:37.333Z,3.10
2023-02-26T10:23:08.172Z,3.20
2023-02-26T10:25:39.107Z,3.30
2023-02-26T10:28:11.215Z,3.30
2023-02-26T10:30:42.757Z,3.40
2023-02-26T10:33:14.909Z,3.40
2023-02-26T10:35:46.793Z,3.50
2023-02-26T10:38:19.247Z,3.50
2023-02-26T10:40:50.852Z,3.50
2023-02-26T10:43:20.976Z,3.50
2023-02-26T10:45:57.388Z,3.60
2023-02-26T10:48:35.618Z,3.60
2023-02-26T10:51:11.115Z,3.60
2023-02-26T10:53:43.973Z,3.70
2023-02-26T10:56:15.849Z,3.80
2023-02-26T10:58:48.948Z,3.80
2023-02-26T11:01:24.222Z,3.80
2023-02-26T11:03:56.268Z,3.80
2023-02-26T11:06:29.707Z,3.80
2023-02-26T11:08:58.548Z,3.80
2023-02-26T11:11:41.999Z,3.90
2023-02-26T11:14:12.685Z,3.90
2023-02-26T11:16:48.714Z,4.00
2023-02-26T11:19:17.405Z,4.00
2023-02-26T11:21:46.291Z,4.00
2023-02-26T11:24:16.162Z,4.10
2023-02-26T11:26:47.805Z,4.10
2023-02-26T11:29:16.728Z,4.10
2023-02-26T11:31:48.434Z,4.10
2023-02-26T11:34:17.671Z,4.20
2023-02-26T11:36:45.863Z,4.20
2023-02-26T11:39:18.775Z,4.20
2023-02-26T11:41:50.368Z,4.30
2023-02-26T11:44:21.208Z,4.30
2023-02-26T11:46:53.084Z,4.40
2023-02-26T11:49:26.055Z,4.50
2023-02-26T11:52:16.476Z,4.70
2023-02-26T11:54:45.685Z,4.80
2023-02-26T11:57:17.368Z,4.90
2023-02-26T11:59:49.535Z,5.00
2023-02-26T12:02:23.162Z,5.00
2023-02-26T12:04:53.361Z,5.00
2023-02-26T12:07:23.027Z,5.10
2023-02-26T12:09:51.895Z,5.20
2023-02-26T12:12:25.603Z,5.30
2023-02-26T12:15:01.245Z,5.40
2023-02-26T12:17:36.365Z,5.50
2023-02-26T12:20:15.177Z,5.60
2023-02-26T12:22:54.874Z,5.80
2023-02-26T12:25:27.374Z,5.80
2023-02-26T12:28:04.323Z,5.90
2023-02-26T12:30:42.259Z,5.90
2023-02-26T12:33:18.099Z,5.80
2023-02-26T12:35:50.555Z,5.80
2023-02-26T12:38:27.578Z,5.80
2023-02-26T12:41:13.425Z,5.70
2023-02-26T12:43:47.990Z,5.70
2023-02-26T12:46:25.504Z,5.70
2023-02-26T12:49:06.372Z,5.80
2023-02-26T12:51:47.240Z,5.80
2023-02-26T12:54:23.708Z,6.10
2023-02-26T12:57:06.813Z,6.30
2023-02-26T12:59:46.460Z,6.60
2023-02-26T13:02:24.950Z,6.90
2023-02-26T13:05:03.153Z,7.10
2023-02-26T13:07:49.898Z,7.30
2023-02-26T13:10:24.288Z,7.40
2023-02-26T13:12:58.012Z,7.40
2023-02-26T13:15:35.369Z,7.50
2023-02-26T13:18:07.982Z,7.60
2023-02-26T13:20:38.828Z,7.50
2023-02-26T13:23:13.094Z,7.40
2023-02-26T13:25:42.793Z,7.60
2023-02-26T13:28:17.729Z,7.70
2023-02-26T13:30:52.249Z,7.80
2023-02-26T13:33:22.268Z,7.80
2023-02-26T13:35:53.748Z,8.10
2023-02-26T13:38:23.984Z,8.40
2023-02-26T13:40:57.985Z,8.20
2023-02-26T13:43:35.655Z,7.90
2023-02-26T13:46:10.932Z,8.10
2023-02-26T13:48:42.563Z,8.20
2023-02-26T13:51:14.828Z,8.60
2023-02-26T13:53:56.545Z,8.50
2023-02-26T13:56:51.450Z,8.40
2023-02-26T13:59:26.324Z,8.60
2023-02-26T14:01:55.340Z,8.50
2023-02-26T14:04:27.969Z,8.30
2023-02-26T14:06:57.738Z,8.20
2023-02-26T14:09:37.021Z,8.50
2023-02-26T14:12:23.847Z,8.70
2023-02-26T14:15:06.683Z,8.80
2023-02-26T14:17:39.873Z,9.10
2023-02-26T14:20:15.326Z,9.20
2023-02-26T14:22:48.127Z,9.30
2023-02-26T14:25:19.216Z,9.40
2023-02-26T14:27:48.279Z,9.20
2023-02-26T14:30:18.716Z,9.00
2023-02-26T14:32:48.001Z,8.90
2023-02-26T14:35:33.458Z,9.00
2023-02-26T14:38:04.136Z,9.20
2023-02-26T14:40:35.863Z,9.10
2023-02-26T14:43:08.460Z,9.00
2023-02-26T14:45:38.726Z,8.80
2023-02-26T14:48:14.037Z,8.30
2023-02-26T14:50:46.298Z,8.10
2023-02-26T14:53:26.011Z,8.10
2023-02-26T14:56:00.217Z,8.10
2023-02-26T14:58:43.463Z,8.30
2023-02-26T15:01:25.539Z,8.40
2023-02-26T15:04:08.269Z,8.70
2023-02-26T15:06:51.394Z,8.70
2023-02-26T15:09:23.308Z,8.80
2023-02-26T15:11:58.764Z,8.70
2023-02-26T15:14:42.617Z,8.40
2023-02-26T15:17:16.902Z,8.60
2023-02-26T15:19:51.202Z,8.30
2023-02-26T15:22:25.458Z,8.20
2023-02-26T15:24:54.781Z,8.20
2023-02-26T15:27:23.021Z,8.00
2023-02-26T15:29:55.819Z,8.00
2023-02-26T15:32:25.834Z,8.10
2023-02-26T15:35:00.900Z,8.20
2023-02-26T15:37:30.270Z,8.30
2023-02-26T15:40:00.173Z,8.50
2023-02-26T15:42:32.203Z,8.60
2023-02-26T15:45:01.465Z,8.50
2023-02-26T15:47:29.821Z,8.50
2023-02-26T15:49:58.894Z,8.50
2023-02-26T15:52:29.168Z,8.50
2023-02-26T15:55:00.377Z,8.50
2023-02-26T15:57:38.482Z,8.40
2023-02-26T16:00:08.579Z,8.30
2023-02-26T16:02:39.216Z,8.10
2023-02-26T16:05:07.463Z,8.00
2023-02-26T16:07:38.812Z,7.90
2023-02-26T16:10:17.238Z,7.90
2023-02-26T16:12:49.249Z,8.00
2023-02-26T16:15:18.637Z,7.90
2023-02-26T16:17:50.851Z,7.80
2023-02-26T16:20:20.332Z,7.80
2023-02-26T16:22:50.955Z,7.70
2023-02-26T16:25:25.332Z,7.50
2023-02-26T16:27:58.389Z,7.30
2023-02-26T16:30:31.506Z,7.10
2023-02-26T16:33:00.124Z,6.90
2023-02-26T16:35:30.120Z,6.70
2023-02-26T16:37:58.123Z,6.40
2023-02-26T16:40:27.538Z,6.20
2023-02-26T16:43:01.821Z,6.00
2023-02-26T16:45:49.421Z,6.20
2023-02-26T16:48:19.468Z,5.90
2023-02-26T16:50:50.270Z,5.80
2023-02-26T16:53:19.918Z,5.70
2023-02-26T16:55:50.465Z,5.60
2023-02-26T16:58:22.034Z,5.40
2023-02-26T17:00:52.542Z,5.30
2023-02-26T17:03:22.308Z,5.20
2023-02-26T17:05:54.346Z,5.10
2023-02-26T17:08:26.253Z,5.00
2023-02-26T17:10:55.643Z,4.80
2023-02-26T17:13:31.449Z,4.90
2023-02-26T17:16:00.114Z,4.60
2023-02-26T17:18:28.370Z,4.80
2023-02-26T17:21:06.210Z,4.70
2023-02-26T17:23:36.838Z,4.70
2023-02-26T17:26:06.157Z,4.60
2023-02-26T17:28:37.216Z,4.50
2023-02-26T17:31:05.569Z,4.50
2023-02-26T17:33:33.588Z,4.40
2023-02-26T17:36:03.321Z,4.40
2023-02-26T17:38:33.380Z,4.30
2023-02-26T17:41:02.283Z,4.30
2023-02-26T17:43:30.322Z,4.30
2023-02-26T17:46:00.084Z,4.20
2023-02-26T17:48:30.987Z,4.10
2023-02-26T17:50:59.019Z,4.10
2023-02-26T17:53:40.638Z,4.10
2023-02-26T17:56:12.511Z,4.00
2023-02-26T17:58:40.756Z,4.00
2023-02-26T18:01:11.106Z,4.00
2023-02-26T18:03:39.887Z,3.90
2023-02-26T18:06:08.354Z,3.90
2023-02-26T18:08:40.687Z,3.80
2023-02-26T18:11:10.773Z,3.70
2023-02-26T18:13:39.114Z,3.70
2023-02-26T18:16:08.150Z,3.70
2023-02-26T18:18:37.482Z,3.60
2023-02-26T18:21:05.917Z,3.60
2023-02-26T18:23:34.144Z,3.60
2023-02-26T18:26:02.869Z,3.60
2023-02-26T18:28:30.859Z,3.50
2023-02-26T18:31:01.603Z,3.50
2023-02-26T18:33:29.612Z,3.50
2023-02-26T18:36:05.789Z,3.50
2023-02-26T18:38:36.585Z,3.50
2023-02-26T18:41:04.584Z,3.50
2023-02-26T18:43:32.579Z,3.50
2023-02-26T18:46:02.060Z,3.60
2023-02-26T18:48:32.810Z,3.50
2023-02-26T18:51:00.800Z,3.50
2023-02-26T18:53:30.180Z,3.50
2023-02-26T18:55:58.158Z,3.50
2023-02-26T18:58:26.538Z,3.60
2023-02-26T19:00:54.515Z,3.60
2023-02-26T19:03:22.474Z,3.50
2023-02-26T19:05:56.697Z,3.50
2023-02-26T19:08:24.673Z,3.60
2023-02-26T19:10:54.029Z,3.50
2023-02-26T19:13:23.972Z,3.50
2023-02-26T19:15:52.072Z,3.50
2023-02-26T19:18:20.579Z,3.50
2023-02-26T19:20:48.627Z,3.40
2023-02-26T19:23:16.615Z,3.40
2023-02-26T19:25:44.577Z,3.40
2023-02-26T19:28:15.386Z,3.40
2023-02-26T19:30:45.291Z,3.30
2023-02-26T19:33:13.343Z,3.30
2023-02-26T19:35:41.480Z,3.30
2023-02-26T19:38:13.393Z,3.20
2023-02-26T19:40:44.525Z,3.20
2023-02-26T19:43:14.278Z,3.20
2023-02-26T19:45:42.511Z,3.20
2023-02-26T19:48:10.477Z,3.20
2023-02-26T19:50:38.454Z,3.10
2023-02-26T19:53:06.513Z,3.10
2023-02-26T19:55:34.598Z,3.10
2023-02-26T19:58:02.543Z,3.10
2023-02-26T20:00:31.992Z,3.00
2023-02-26T20:03:00.113Z,3.00
2023-02-26T20:05:31.373Z,2.90
2023-02-26T20:07:59.331Z,2.90
2023-02-26T20:10:29.059Z,2.90
2023-02-26T20:12:58.292Z,2.90
2023-02-26T20:15:27.279Z,2.80
2023-02-26T20:17:56.740Z,2.80
2023-02-26T20:20:24.770Z,2.70
2023-02-26T20:22:55.490Z,2.60
2023-02-26T20:25:29.377Z,2.60
2023-02-26T20:28:03.027Z,2.60
2023-02-26T20:30:32.748Z,2.50
2023-02-26T20:33:02.150Z,2.50
2023-02-26T20:35:30.164Z,2.50
2023-02-26T20:37:58.164Z,2.50
2023-02-26T20:40:26.226Z,2.40
2023-02-26T20:42:55.394Z,2.40
2023-02-26T20:45:23.361Z,2.30
2023-02-26T20:48:02.003Z,2.30
2023-02-26T20:50:30.006Z,2.30
2023-02-26T20:52:58.045Z,2.20
2023-02-26T20:55:26.074Z,2.20
2023-02-26T20:57:55.034Z,2.10
2023-02-26T21:00:23.424Z,2.10
2023-02-26T21:02:53.729Z,2.10
2023-02-26T21:05:23.232Z,2.00
2023-02-26T21:07:51.681Z,2.00
2023-02-26T21:10:20.439Z,2.00
2023-02-26T21:12:48.444Z,2.00
2023-02-26T21:15:16.403Z,1.90
2023-02-26T21:17:44.520Z,1.90
2023-02-26T21:20:13.411Z,1.90
2023-02-26T21:22:56.785Z,1.80
2023-02-26T21:25:31.369Z,1.80
2023-02-26T21:27:59.360Z,1.80
2023-02-26T21:30:28.861Z,1.70
2023-02-26T21:32:56.946Z,1.60
2023-02-26T21:35:24.919Z,1.50
2023-02-26T21:37:54.643Z,1.50
2023-02-26T21:40:22.717Z,1.50
2023-02-26T21:42:50.759Z,1.50
2023-02-26T21:45:18.923Z,1.50
2023-02-26T21:47:48.101Z,1.50
2023-02-26T21:50:16.067Z,1.50
2023-02-26T21:52:44.072Z,1.40
2023-02-26T21:55:13.549Z,1.40
2023-02-26T21:57:41.498Z,1.40
2023-02-26T22:00:11.582Z,1.40
2023-02-26T22:02:39.840Z,1.30
2023-02-26T22:05:07.988Z,1.30
2023-02-26T22:07:36.052Z,1.30
2023-02-26T22:10:04.512Z,1.20
2023-02-26T22:12:33.972Z,1.10
2023-02-26T22:15:01.973Z,1.10
2023-02-26T22:17:31.118Z,1.00
2023-02-26T22:19:59.096Z,1.00
2023-02-26T22:22:27.874Z,1.00
2023-02-26T22:24:55.849Z,1.00
2023-02-26T22:27:23.845Z,1.00
2023-02-26T22:29:53.325Z,1.00
2023-02-26T22:32:21.345Z,0.90
2023-02-26T22:34:49.313Z,0.90
2023-02-26T22:37:20.159Z,0.90
2023-02-26T22:39:48.149Z,0.80
2023-02-26T22:42:16.212Z,0.80
2023-02-26T22:44:44.406Z,0.70
2023-02-26T22:47:13.817Z,0.80
2023-02-26T22:49:41.903Z,0.70
2023-02-26T22:52:11.979Z,0.70
2023-02-26T22:54:40.023Z,0.70
2023-02-26T22:57:08.744Z,0.70
2023-02-26T22:59:36.717Z,0.70
2023-02-26T23:02:04.924Z,0.60
2023-02-26T23:04:34.311Z,0.60
2023-02-26T23:07:02.309Z,0.60
2023-02-26T23:09:30.321Z,0.50
2023-02-26T23:11:58.490Z,0.50
2023-02-26T23:14:26.467Z,0.50
2023-02-26T23:16:54.757Z,0.40
2023-02-26T23:19:22.758Z,0.40
2023-02-26T23:21:52.140Z,0.40
2023-02-26T23:24:20.108Z,0.40
2023-02-26T23:26:48.048Z,0.30
2023-02-26T23:29:16.094Z,0.30
2023-02-26T23:31:45.408Z,0.30
2023-02-26T23:34:13.476Z,0.30
2023-02-26T23:36:42.285Z,0.20
2023-02-26T23:39:13.536Z,0.30
2023-02-26T23:41:41.492Z,0.30
2023-02-26T23:44:09.489Z,0.20
2023-02-26T23:46:37.798Z,0.20
2023-02-26T23:49:05.856Z,0.20
2023-02-26T23:51:33.783Z,0.10
2023-02-26T23:54:02.394Z,0.00
2023-02-26T23:56:31.692Z,0.10
2023-02-26T23:58:59.681Z,0.10
